Main page
METAR-TAF:

METAR-TAF

Airports :

King Abdulaziz International Airport

Jeddah, Saudi Arabia

latitude: 21-42N, longitude: 039-11E, elevation: 15 m

Current weather observation

The report was made 1 hour and 2 minutes ago, at 22:00 UTC
Calm wind
Temperature 25°C
Humidity 65%
Pressure 1017 hPa
Visibility 10 km or more
no clouds below 1500 m and no cumulonimbus

METAR: OEJN 142200Z 00000KT CAVOK 25/18 Q1017 NOSIG

Time: 02:02 (23:02 UTC)

Forecast

The report was made 6 hours and 2 minutes ago, at 17:00 UTC
Forecast valid from 14 at 18 UTC to 15 at 24 UTC
Wind 8 kt from the Northeast
Visibility 10 km or more
Scattered clouds at a height of 4000 ft
Becoming
from 15 at 06 UTC to 15 at 08 UTC
Wind 12 kt from the West/Southwest

TAF: OEJN 141700Z 1418/1524 04008KT 9999 SCT040 BECMG 1506/1508 25012KT

Weather observations and forecasts of more than 4000 airports (METAR and TAF reports).

The available stations are represented by yellow and red dots on the map.

Hover mouse over dot to see the name of the station.

Then click to see weather observations and forecasts.

To change the map : click on the green buttons with a black cross to zoom in, on the green button with a dash to zoom out, or on the green arrows for adjacent maps.


METAR-TAF: